Time;durP1;ratioP1;P1;durP2;ratioP2;P2;SDS_P1;SDS_P2;PMS_P1;PMS_P2;Temp;Humidity;BMP_temperature;BMP_pressure;BME280_temperature;BME280_humidity;BME280_pressure;Samples;Min_cycle;Max_cycle;Signal;HPM_P1;HPM_P2
2023/07/05 00:01:14;;;;;;;2.60;0.80;;;14.20;99.90;;;;;;6220465;23;20012;-86
2023/07/05 00:03:40;;;;;;;3.10;1.02;;;14.20;99.90;;;;;;6246936;23;20020;-85
2023/07/05 00:06:06;;;;;;;4.18;1.08;;;14.10;99.90;;;;;;6245330;23;20028;-86
2023/07/05 00:08:33;;;;;;;3.65;1.20;;;14.00;99.90;;;;;;6220169;23;20055;-86
2023/07/05 00:11:06;;;;;;;2.65;1.00;;;13.90;99.90;;;;;;6220666;23;20402;-87
2023/07/05 00:13:33;;;;;;;1.95;0.80;;;14.00;99.90;;;;;;6246833;23;20020;-85
2023/07/05 00:15:59;;;;;;;4.18;0.98;;;13.90;99.90;;;;;;6219823;23;20020;-86
2023/07/05 00:18:28;;;;;;;4.55;1.20;;;13.90;99.90;;;;;;6220198;23;20020;-85
2023/07/05 00:21:00;;;;;;;5.45;1.23;;;13.90;99.90;;;;;;6219693;23;20040;-85
2023/07/05 00:23:27;;;;;;;4.43;0.90;;;13.90;99.90;;;;;;6219704;23;20020;-86
2023/07/05 00:25:52;;;;;;;3.95;1.55;;;13.90;99.90;;;;;;6219799;23;20020;-86
2023/07/05 00:28:18;;;;;;;5.28;1.70;;;13.80;99.90;;;;;;6219727;23;20028;-86
2023/07/05 00:30:46;;;;;;;3.25;1.50;;;13.80;99.90;;;;;;6220048;23;20375;-85
2023/07/05 00:33:11;;;;;;;4.70;1.70;;;13.80;99.90;;;;;;6219565;23;20028;-85
2023/07/05 00:35:44;;;;;;;4.93;1.70;;;13.80;99.90;;;;;;6219912;23;20340;-85
2023/07/05 00:38:10;;;;;;;5.57;1.25;;;13.80;99.90;;;;;;6246966;23;20098;-86
2023/07/05 00:40:37;;;;;;;4.60;1.50;;;13.80;99.90;;;;;;6194681;23;20071;-85
2023/07/05 00:43:02;;;;;;;4.30;1.65;;;13.80;99.90;;;;;;6247117;23;20314;-87
2023/07/05 00:45:56;;;;;;;2.78;1.33;;;13.80;99.90;;;;;;6220038;23;20027;-85
2023/07/05 00:48:36;;;;;;;4.88;1.58;;;13.80;99.90;;;;;;6219597;23;20095;-86
2023/07/05 00:51:05;;;;;;;11.32;2.20;;;13.80;99.90;;;;;;6220264;23;20024;-85
2023/07/05 00:53:36;;;;;;;3.88;1.85;;;13.70;99.90;;;;;;6220336;23;20095;-86
2023/07/05 00:56:37;;;;;;;2.67;1.25;;;13.80;99.90;;;;;;6246555;23;20055;-86
2023/07/05 00:59:02;;;;;;;4.32;1.50;;;13.80;99.90;;;;;;6213747;23;20028;-86
2023/07/05 01:01:29;;;;;;;2.58;1.70;;;13.80;99.90;;;;;;6220204;23;20016;-86
2023/07/05 01:03:58;;;;;;;4.35;1.90;;;13.80;99.90;;;;;;6247084;23;20020;-85
2023/07/05 01:06:24;;;;;;;4.00;1.70;;;13.80;99.90;;;;;;6247268;23;20024;-86
2023/07/05 01:08:51;;;;;;;3.03;1.80;;;14.10;99.90;;;;;;6220250;23;20097;-86
2023/07/05 01:12:05;;;;;;;4.30;1.75;;;13.90;99.90;;;;;;6246912;23;20024;-86
2023/07/05 01:14:43;;;;;;;7.07;1.63;;;13.90;99.90;;;;;;6240008;22;20103;-86
2023/07/05 01:17:14;;;;;;;4.95;1.92;;;13.90;99.90;;;;;;6220062;23;20043;-87
2023/07/05 01:20:05;;;;;;;7.65;2.55;;;13.90;99.90;;;;;;6246317;23;20019;-85
2023/07/05 01:23:29;;;;;;;8.55;2.22;;;13.90;99.90;;;;;;6219030;23;20028;-85
2023/07/05 01:26:16;;;;;;;5.45;2.83;;;14.00;99.90;;;;;;6099724;23;20066;-85
2023/07/05 01:29:09;;;;;;;5.13;2.00;;;14.10;99.90;;;;;;6099249;23;20026;-85
2023/07/05 01:31:36;;;;;;;5.30;3.20;;;14.10;99.90;;;;;;6123941;23;20026;-85
2023/07/05 01:34:16;;;;;;;6.93;1.80;;;13.90;99.90;;;;;;6099316;23;20025;-87
2023/07/05 01:36:42;;;;;;;5.72;2.78;;;14.10;99.90;;;;;;6099002;23;20033;-85
2023/07/05 01:39:08;;;;;;;6.75;2.47;;;14.10;99.90;;;;;;6099215;23;20026;-86
2023/07/05 01:41:34;;;;;;;6.10;2.70;;;14.10;99.90;;;;;;6075597;23;20214;-86
2023/07/05 01:44:00;;;;;;;6.90;1.95;;;14.10;99.90;;;;;;6123833;23;20330;-86
2023/07/05 01:46:47;;;;;;;5.55;2.72;;;14.10;99.90;;;;;;6099501;23;20037;-85
2023/07/05 01:49:41;;;;;;;3.47;2.42;;;14.20;99.90;;;;;;6074887;23;20021;-87
2023/07/05 01:52:15;;;;;;;6.20;2.22;;;14.20;99.90;;;;;;6099600;23;20022;-85
2023/07/05 01:55:06;;;;;;;5.68;3.03;;;14.20;99.90;;;;;;6123758;23;20058;-85
2023/07/05 01:58:14;;;;;;;9.60;3.90;;;14.20;99.90;;;;;;6202317;23;20027;-85
2023/07/05 02:00:41;;;;;;;5.43;2.50;;;14.20;99.90;;;;;;6074989;23;20022;-85
2023/07/05 02:03:14;;;;;;;11.23;2.67;;;14.20;99.90;;;;;;6099198;23;20101;-86
2023/07/05 02:05:40;;;;;;;6.30;3.00;;;14.20;99.90;;;;;;6098845;23;20021;-85
2023/07/05 02:08:07;;;;;;;4.32;2.35;;;14.20;99.90;;;;;;6124076;23;20085;-85
2023/07/05 02:10:33;;;;;;;6.07;3.30;;;14.20;99.90;;;;;;6098992;23;20029;-85
2023/07/05 02:13:02;;;;;;;10.57;3.67;;;14.10;99.90;;;;;;6123369;23;20484;-85
2023/07/05 02:15:28;;;;;;;8.27;4.07;;;14.20;99.90;;;;;;6098874;23;20037;-86
2023/07/05 02:17:54;;;;;;;5.40;2.67;;;14.10;99.90;;;;;;6123623;23;20022;-85
2023/07/05 02:20:19;;;;;;;4.18;2.92;;;14.10;99.90;;;;;;6098539;23;20358;-86
2023/07/05 02:22:45;;;;;;;5.72;3.10;;;14.10;99.90;;;;;;6123423;23;20026;-86
2023/07/05 02:25:11;;;;;;;5.50;3.42;;;14.00;99.90;;;;;;6098705;23;20029;-86
2023/07/05 02:27:37;;;;;;;8.35;3.40;;;14.00;99.90;;;;;;6098989;23;20022;-86
2023/07/05 02:30:05;;;;;;;6.90;3.95;;;14.00;99.90;;;;;;6123533;23;20469;-86
2023/07/05 02:32:31;;;;;;;10.70;3.92;;;14.00;99.90;;;;;;6098801;23;20033;-85
2023/07/05 02:35:00;;;;;;;9.57;4.18;;;14.00;99.90;;;;;;6074822;23;20122;-86
2023/07/05 02:37:26;;;;;;;8.18;3.97;;;14.00;99.90;;;;;;6179154;23;20016;-86
2023/07/05 02:39:56;;;;;;;9.13;3.83;;;14.00;99.90;;;;;;6245743;23;20087;-86
2023/07/05 02:42:21;;;;;;;7.45;4.05;;;14.00;99.90;;;;;;6218480;23;20031;-85
2023/07/05 02:44:48;;;;;;;6.25;4.07;;;14.00;99.90;;;;;;6218273;23;20502;-86
2023/07/05 02:47:14;;;;;;;9.13;3.80;;;14.10;99.90;;;;;;6219082;23;20051;-86
2023/07/05 02:49:40;;;;;;;10.57;4.35;;;14.10;99.90;;;;;;6218799;23;20521;-87
2023/07/05 02:52:06;;;;;;;8.77;4.70;;;14.10;99.90;;;;;;6218995;23;20023;-86
2023/07/05 02:54:32;;;;;;;10.23;4.38;;;14.10;99.90;;;;;;6218352;23;20024;-86
2023/07/05 02:56:57;;;;;;;13.52;5.03;;;14.10;99.90;;;;;;6218242;23;20020;-86
2023/07/05 02:59:23;;;;;;;7.70;3.88;;;14.10;99.90;;;;;;6218193;23;20336;-86
2023/07/05 03:01:49;;;;;;;5.97;3.92;;;14.00;99.90;;;;;;6218949;23;20020;-85
2023/07/05 03:04:15;;;;;;;7.90;3.60;;;14.10;99.90;;;;;;6245221;23;20020;-86
2023/07/05 03:06:41;;;;;;;7.32;4.93;;;14.10;99.90;;;;;;6218173;23;20051;-85
2023/07/05 03:09:07;;;;;;;7.50;4.93;;;14.10;99.90;;;;;;6245976;23;20023;-86
2023/07/05 03:11:32;;;;;;;9.35;5.40;;;14.00;99.90;;;;;;6245593;23;20443;-85
2023/07/05 03:13:58;;;;;;;9.25;4.78;;;14.00;99.90;;;;;;6245176;23;20028;-85
2023/07/05 03:16:24;;;;;;;9.27;4.50;;;14.00;99.90;;;;;;6217866;23;20063;-85
2023/07/05 03:18:49;;;;;;;9.98;5.07;;;14.00;99.90;;;;;;6245422;22;20085;-85
2023/07/05 03:21:15;;;;;;;10.82;4.80;;;14.00;99.90;;;;;;6218556;23;20031;-87
2023/07/05 03:23:41;;;;;;;11.02;4.72;;;14.00;99.90;;;;;;6218550;23;20420;-85
2023/07/05 03:26:08;;;;;;;8.35;4.55;;;13.90;99.90;;;;;;6245342;23;20086;-85
2023/07/05 03:28:36;;;;;;;8.43;3.78;;;13.90;99.90;;;;;;6245333;23;20061;-85
2023/07/05 03:31:04;;;;;;;10.20;4.75;;;14.00;99.90;;;;;;6218672;23;20534;-85
2023/07/05 03:33:31;;;;;;;7.00;3.85;;;13.90;99.90;;;;;;6218240;23;20028;-87
2023/07/05 03:35:59;;;;;;;9.40;5.10;;;13.90;99.90;;;;;;6218593;23;20016;-86
2023/07/05 03:38:26;;;;;;;11.05;5.50;;;13.90;99.90;;;;;;6218652;23;20355;-84
2023/07/05 03:41:04;;;;;;;8.35;5.03;;;13.90;99.90;;;;;;6218273;23;20024;-84
2023/07/05 03:43:32;;;;;;;9.30;4.35;;;13.90;99.90;;;;;;6245770;23;20012;-84
2023/07/05 03:45:59;;;;;;;10.65;4.57;;;13.90;99.90;;;;;;6245185;23;20020;-84
2023/07/05 03:48:29;;;;;;;11.35;5.07;;;14.00;99.90;;;;;;6245126;23;20028;-86
2023/07/05 03:50:58;;;;;;;9.70;5.20;;;14.00;99.90;;;;;;6245692;23;20012;-85
2023/07/05 03:53:25;;;;;;;9.23;4.15;;;14.00;99.90;;;;;;6218385;23;20024;-84
2023/07/05 03:55:51;;;;;;;8.95;5.22;;;14.00;99.90;;;;;;6245182;23;20020;-85
2023/07/05 03:58:16;;;;;;;7.25;4.95;;;14.00;99.90;;;;;;6218526;23;20346;-85
2023/07/05 04:00:42;;;;;;;7.35;5.03;;;14.00;99.90;;;;;;6218452;23;20114;-85
2023/07/05 04:03:08;;;;;;;8.38;4.85;;;14.10;99.90;;;;;;6218517;23;20024;-85
2023/07/05 04:05:34;;;;;;;7.18;4.90;;;14.00;99.90;;;;;;6245562;23;20023;-85
2023/07/05 04:08:00;;;;;;;11.00;5.25;;;14.10;99.90;;;;;;6193173;23;20024;-86
2023/07/05 04:10:26;;;;;;;8.43;4.22;;;14.00;99.90;;;;;;6192452;23;20351;-85
2023/07/05 04:12:52;;;;;;;8.05;4.85;;;14.10;99.90;;;;;;6245295;23;20016;-86
2023/07/05 04:15:18;;;;;;;6.00;4.13;;;14.10;99.90;;;;;;6245762;23;20496;-85
2023/07/05 04:17:44;;;;;;;6.95;3.95;;;14.10;99.90;;;;;;6245471;23;20035;-86
2023/07/05 04:20:10;;;;;;;6.82;3.92;;;14.10;99.90;;;;;;6245027;23;20024;-85
2023/07/05 04:22:37;;;;;;;6.25;3.90;;;14.10;99.90;;;;;;6218489;23;20490;-86
2023/07/05 04:25:03;;;;;;;5.38;3.63;;;14.10;99.90;;;;;;6218673;23;20051;-86
2023/07/05 04:27:29;;;;;;;7.22;4.25;;;14.10;99.90;;;;;;6246279;23;20431;-86
2023/07/05 04:29:55;;;;;;;6.47;3.00;;;14.20;99.90;;;;;;6219482;23;20021;-85
2023/07/05 04:32:20;;;;;;;7.45;4.25;;;14.20;99.90;;;;;;6220367;23;20055;-85
2023/07/05 04:34:46;;;;;;;6.40;4.32;;;14.20;99.90;;;;;;6247960;23;20099;-86
2023/07/05 04:37:12;;;;;;;6.05;3.80;;;14.30;99.90;;;;;;6221440;23;20347;-85
2023/07/05 04:39:38;;;;;;;7.22;3.92;;;14.30;99.90;;;;;;6247546;23;20024;-85
2023/07/05 04:42:04;;;;;;;5.07;2.95;;;14.40;99.90;;;;;;6246736;23;20096;-86
2023/07/05 04:44:31;;;;;;;6.50;3.92;;;14.40;99.90;;;;;;6219766;23;20028;-85
2023/07/05 04:46:56;;;;;;;6.05;3.92;;;14.40;99.90;;;;;;6220175;23;20024;-84
2023/07/05 04:49:22;;;;;;;5.07;3.42;;;14.50;99.90;;;;;;6219659;23;20055;-85
2023/07/05 04:51:48;;;;;;;5.57;3.40;;;14.60;99.90;;;;;;6219873;23;20173;-85
2023/07/05 04:54:14;;;;;;;7.45;4.10;;;14.60;99.90;;;;;;6219580;23;20451;-84
2023/07/05 04:56:40;;;;;;;6.35;4.03;;;14.50;99.90;;;;;;6246401;23;20023;-86
2023/07/05 04:59:06;;;;;;;5.85;3.63;;;14.60;99.90;;;;;;6246737;23;20031;-86
2023/07/05 05:01:32;;;;;;;6.93;3.50;;;14.70;99.90;;;;;;6194221;23;20024;-85
2023/07/05 05:03:58;;;;;;;7.43;3.38;;;14.70;99.90;;;;;;6219525;23;20063;-85
2023/07/05 05:06:23;;;;;;;5.60;3.47;;;14.70;99.90;;;;;;6220320;23;20154;-85
2023/07/05 05:08:49;;;;;;;7.00;3.05;;;14.70;99.90;;;;;;6220978;23;20038;-87
2023/07/05 05:11:15;;;;;;;6.15;3.67;;;14.70;99.90;;;;;;6246694;23;20390;-85
2023/07/05 05:13:40;;;;;;;9.55;3.75;;;14.70;99.90;;;;;;6219249;23;20038;-86
2023/07/05 05:16:06;;;;;;;6.35;3.10;;;14.80;99.90;;;;;;6219456;23;20031;-86
2023/07/05 05:18:37;;;;;;;4.80;3.13;;;14.70;99.90;;;;;;6219659;22;20027;-86
2023/07/05 05:21:04;;;;;;;4.82;2.90;;;14.80;99.90;;;;;;6219033;23;20028;-85
2023/07/05 05:23:30;;;;;;;5.60;3.13;;;14.80;99.90;;;;;;6246574;23;20031;-87
2023/07/05 05:25:56;;;;;;;4.43;2.90;;;14.80;99.90;;;;;;6219445;23;20026;-87
2023/07/05 05:28:22;;;;;;;6.32;2.38;;;14.80;99.90;;;;;;6246365;23;20087;-86
2023/07/05 05:30:50;;;;;;;5.22;2.58;;;14.70;99.90;;;;;;6246570;23;20016;-87
2023/07/05 05:33:17;;;;;;;4.38;2.75;;;14.70;99.90;;;;;;6245952;23;20094;-86
2023/07/05 05:35:49;;;;;;;7.78;1.95;;;14.70;99.90;;;;;;6246543;23;20024;-87
2023/07/05 05:38:19;;;;;;;5.68;2.03;;;14.70;99.90;;;;;;6246164;23;20032;-87
2023/07/05 05:40:48;;;;;;;5.53;2.17;;;14.60;99.90;;;;;;6246920;23;20020;-87
2023/07/05 05:43:14;;;;;;;6.60;2.05;;;14.60;99.90;;;;;;6246652;23;20091;-86
2023/07/05 05:45:42;;;;;;;2.88;1.90;;;14.60;99.90;;;;;;6219245;23;20020;-88
2023/07/05 05:48:08;;;;;;;4.72;1.85;;;14.60;99.90;;;;;;6219839;23;20023;-87
2023/07/05 05:50:35;;;;;;;5.05;2.10;;;14.60;99.90;;;;;;6220145;23;20024;-87
2023/07/05 05:53:02;;;;;;;6.22;2.20;;;14.50;99.90;;;;;;6221285;23;20102;-87
2023/07/05 05:55:28;;;;;;;4.53;2.15;;;14.50;99.90;;;;;;6246893;23;20024;-86
2023/07/05 05:57:54;;;;;;;3.15;1.95;;;14.50;99.90;;;;;;6219648;23;20028;-87
2023/07/05 06:00:20;;;;;;;4.85;2.05;;;14.70;99.90;;;;;;6219077;23;20328;-85
2023/07/05 06:02:46;;;;;;;3.55;1.98;;;14.70;99.90;;;;;;6194515;23;20024;-87
2023/07/05 06:05:12;;;;;;;4.85;2.10;;;14.80;99.90;;;;;;6219126;23;20046;-87
2023/07/05 06:07:38;;;;;;;4.82;2.15;;;14.80;99.90;;;;;;6246561;23;20055;-88
2023/07/05 06:10:04;;;;;;;4.03;1.98;;;14.90;99.90;;;;;;6218968;23;20105;-86
2023/07/05 06:12:30;;;;;;;4.25;2.35;;;15.00;99.90;;;;;;6194022;23;20031;-86
2023/07/05 06:14:56;;;;;;;4.30;2.17;;;15.00;99.90;;;;;;6219104;23;20024;-85
2023/07/05 06:17:21;;;;;;;3.00;1.70;;;15.00;99.90;;;;;;6245510;23;20343;-85
2023/07/05 06:19:47;;;;;;;4.05;1.85;;;15.00;99.90;;;;;;6218754;23;20160;-85
2023/07/05 06:22:13;;;;;;;3.15;1.60;;;15.10;99.90;;;;;;6218791;23;20443;-83
2023/07/05 06:24:42;;;;;;;5.90;2.40;;;15.00;99.90;;;;;;6245930;23;20047;-86
2023/07/05 06:27:08;;;;;;;3.42;1.75;;;15.00;99.90;;;;;;6246305;23;20023;-86
2023/07/05 06:29:33;;;;;;;3.85;1.70;;;15.10;99.90;;;;;;6245975;23;20027;-89
2023/07/05 06:31:59;;;;;;;3.72;2.00;;;15.10;99.90;;;;;;6245983;23;20095;-88
2023/07/05 06:34:25;;;;;;;2.97;1.70;;;15.20;99.90;;;;;;6245616;23;20027;-87
2023/07/05 06:36:51;;;;;;;4.13;1.90;;;15.20;99.90;;;;;;6218764;23;20095;-84
2023/07/05 06:39:16;;;;;;;2.22;1.58;;;15.20;99.90;;;;;;6246227;23;20106;-86
2023/07/05 06:41:42;;;;;;;3.03;1.45;;;15.20;99.90;;;;;;6246898;23;20016;-86
2023/07/05 06:44:08;;;;;;;4.43;1.50;;;15.20;99.90;;;;;;6219120;23;20034;-86
2023/07/05 06:46:34;;;;;;;4.78;1.80;;;15.10;99.90;;;;;;6245896;23;20086;-83
2023/07/05 06:48:59;;;;;;;3.20;1.55;;;15.10;99.90;;;;;;6247094;23;20439;-83
2023/07/05 06:51:25;;;;;;;4.05;1.77;;;15.20;99.90;;;;;;6246601;23;20034;-83
2023/07/05 06:53:51;;;;;;;3.00;1.55;;;15.20;99.90;;;;;;6246564;23;20022;-82
2023/07/05 06:56:17;;;;;;;4.28;1.50;;;15.20;99.90;;;;;;6194214;23;20458;-85
2023/07/05 06:58:43;;;;;;;4.82;1.83;;;15.30;99.90;;;;;;6219170;23;20039;-85
2023/07/05 07:01:09;;;;;;;3.60;1.65;;;15.40;99.90;;;;;;6219788;23;20027;-82
2023/07/05 07:03:34;;;;;;;3.92;1.75;;;15.50;99.90;;;;;;6246218;23;20366;-82
2023/07/05 07:06:00;;;;;;;2.22;1.20;;;15.40;99.90;;;;;;6246219;23;20020;-83
2023/07/05 07:08:31;;;;;;;6.15;2.35;;;15.40;99.90;;;;;;6218415;23;20458;-84
2023/07/05 07:11:01;;;;;;;2.80;1.35;;;15.30;99.90;;;;;;6245167;23;20078;-83
2023/07/05 07:13:28;;;;;;;2.53;1.17;;;15.30;99.90;;;;;;6244570;23;20016;-83
2023/07/05 07:16:06;;;;;;;2.33;1.15;;;15.30;99.90;;;;;;6246714;23;20087;-88
2023/07/05 07:18:35;;;;;;;3.38;1.50;;;15.20;99.90;;;;;;6245207;22;20020;-83
2023/07/05 07:21:02;;;;;;;3.17;1.55;;;15.40;99.90;;;;;;6246725;23;20125;-83
2023/07/05 07:23:28;;;;;;;3.65;1.42;;;15.50;99.90;;;;;;6219328;23;20035;-82
2023/07/05 07:26:03;;;;;;;3.53;1.50;;;15.70;99.90;;;;;;6245733;23;20342;-83
2023/07/05 07:28:29;;;;;;;3.53;1.17;;;15.90;99.90;;;;;;6217851;23;20020;-83
2023/07/05 07:30:55;;;;;;;2.80;1.50;;;16.00;99.90;;;;;;6219019;23;20180;-83
2023/07/05 07:33:21;;;;;;;2.85;1.20;;;16.10;99.90;;;;;;6245401;23;20017;-83
2023/07/05 07:35:48;;;;;;;1.88;1.15;;;16.20;99.90;;;;;;6218676;23;20099;-81
2023/07/05 07:38:14;;;;;;;4.07;1.38;;;16.30;99.90;;;;;;6245281;23;20012;-81
2023/07/05 07:40:40;;;;;;;2.13;1.13;;;16.20;99.90;;;;;;6244847;23;20020;-83
2023/07/05 07:43:07;;;;;;;1.88;0.98;;;16.10;99.90;;;;;;6244862;23;20023;-82
2023/07/05 07:45:33;;;;;;;2.33;0.90;;;16.00;99.90;;;;;;6243586;23;20020;-82
2023/07/05 07:47:59;;;;;;;3.65;1.10;;;15.80;99.90;;;;;;6218349;23;20013;-82
2023/07/05 07:50:25;;;;;;;5.55;1.20;;;15.80;99.90;;;;;;6244862;23;20040;-82
2023/07/05 07:52:52;;;;;;;2.72;1.10;;;15.80;99.90;;;;;;6244988;23;20024;-84
2023/07/05 07:55:17;;;;;;;4.50;0.93;;;15.80;99.90;;;;;;6218078;23;20074;-82
2023/07/05 07:57:43;;;;;;;3.35;1.10;;;15.80;99.90;;;;;;6245106;23;20024;-81
2023/07/05 08:00:10;;;;;;;1.85;0.90;;;15.80;99.90;;;;;;6244781;23;20075;-82
2023/07/05 08:02:39;;;;;;;2.78;1.00;;;15.70;99.90;;;;;;6245866;23;20520;-86
2023/07/05 08:05:18;;;;;;;2.03;1.00;;;15.50;99.90;;;;;;6248379;23;20431;-82
2023/07/05 08:07:44;;;;;;;1.83;0.80;;;15.40;99.90;;;;;;6247687;23;20016;-84
2023/07/05 08:10:10;;;;;;;1.77;0.88;;;15.30;99.90;;;;;;6220370;23;20055;-84
2023/07/05 08:12:35;;;;;;;2.92;0.80;;;15.10;99.90;;;;;;6246886;23;20106;-84
2023/07/05 08:15:01;;;;;;;1.85;1.10;;;14.90;99.90;;;;;;6247074;23;20064;-84
2023/07/05 08:17:28;;;;;;;2.65;0.80;;;14.80;99.90;;;;;;6219929;23;20093;-83
2023/07/05 08:19:54;;;;;;;0.82;0.43;;;14.70;99.90;;;;;;6247012;22;20466;-83
2023/07/05 08:22:19;;;;;;;4.43;0.70;;;14.50;99.90;;;;;;6245467;23;20024;-84
2023/07/05 08:24:45;;;;;;;1.60;0.30;;;14.60;99.90;;;;;;6245036;23;20048;-84
2023/07/05 08:27:11;;;;;;;0.60;0.30;;;14.30;99.90;;;;;;6217828;23;20352;-84
2023/07/05 08:29:37;;;;;;;0.85;0.40;;;14.10;99.90;;;;;;6245195;23;20339;-83
2023/07/05 08:32:03;;;;;;;0.90;0.32;;;13.90;99.90;;;;;;6244821;23;20469;-83
2023/07/05 08:34:30;;;;;;;2.40;0.40;;;13.80;99.90;;;;;;6244880;23;20443;-84
2023/07/05 08:36:55;;;;;;;1.30;0.40;;;13.80;99.90;;;;;;6217910;23;20024;-83
2023/07/05 08:39:22;;;;;;;0.73;0.30;;;13.60;99.90;;;;;;6244639;23;20426;-84
2023/07/05 08:41:55;;;;;;;0.90;0.20;;;13.40;99.90;;;;;;6217857;23;20020;-84
2023/07/05 08:44:56;;;;;;;0.95;0.40;;;13.30;99.90;;;;;;6217949;23;20020;-85
2023/07/05 08:47:27;;;;;;;1.75;0.30;;;13.20;99.90;;;;;;6098398;23;20044;-85
2023/07/05 08:50:04;;;;;;;3.22;0.32;;;13.10;99.90;;;;;;6122482;23;20413;-85
2023/07/05 08:52:36;;;;;;;2.53;0.77;;;13.30;99.90;;;;;;6073788;23;20026;-87
2023/07/05 08:55:05;;;;;;;1.25;0.30;;;13.00;99.90;;;;;;6098039;23;20030;-85
2023/07/05 08:57:53;;;;;;;0.88;0.30;;;12.90;99.90;;;;;;6097768;23;20026;-84
2023/07/05 09:00:48;;;;;;;1.42;0.30;;;12.80;99.90;;;;;;6122696;23;20081;-84
2023/07/05 09:03:15;;;;;;;1.13;0.30;;;12.80;99.90;;;;;;6097458;23;20112;-84
2023/07/05 09:06:09;;;;;;;0.60;0.20;;;12.80;99.90;;;;;;6122742;23;20022;-83
2023/07/05 09:08:58;;;;;;;0.50;0.20;;;12.80;99.90;;;;;;6074091;23;20065;-84
2023/07/05 09:11:44;;;;;;;2.30;0.20;;;12.70;99.90;;;;;;6122661;23;20034;-83
2023/07/05 09:14:27;;;;;;;0.75;0.20;;;12.70;99.90;;;;;;6097734;23;20026;-84
2023/07/05 09:17:03;;;;;;;0.60;0.20;;;12.60;99.90;;;;;;6098183;23;20057;-84
2023/07/05 09:19:37;;;;;;;0.90;0.30;;;12.60;99.90;;;;;;6097771;23;20022;-84
2023/07/05 09:22:07;;;;;;;2.40;0.30;;;12.60;99.90;;;;;;6092533;23;1099419;-86
2023/07/05 09:24:38;;;;;;;1.55;0.30;;;12.60;99.90;;;;;;6246278;23;20059;-83
2023/07/05 09:27:23;;;;;;;1.55;0.40;;;12.50;99.90;;;;;;6245875;23;20447;-84
2023/07/05 09:30:04;;;;;;;1.67;0.50;;;12.50;99.90;;;;;;6246180;23;20077;-83
2023/07/05 09:32:41;;;;;;;2.70;0.50;;;12.50;99.90;;;;;;6246413;23;20091;-84
2023/07/05 09:35:15;;;;;;;1.13;0.40;;;12.50;99.90;;;;;;6219147;23;20439;-83
2023/07/05 09:37:58;;;;;;;2.95;0.50;;;12.50;99.90;;;;;;6246496;23;20016;-83
2023/07/05 09:40:28;;;;;;;2.40;0.60;;;12.50;99.90;;;;;;6246092;23;20052;-85
2023/07/05 09:43:02;;;;;;;2.10;0.50;;;12.60;99.90;;;;;;6219307;23;20099;-85
2023/07/05 09:45:28;;;;;;;3.28;0.25;;;12.70;99.90;;;;;;6244573;23;20024;-82
2023/07/05 09:47:59;;;;;;;2.72;0.40;;;12.70;99.90;;;;;;6246358;23;20095;-85
2023/07/05 09:50:25;;;;;;;2.08;0.20;;;12.80;99.90;;;;;;6246084;23;20028;-87
2023/07/05 09:52:55;;;;;;;1.85;0.30;;;12.90;99.90;;;;;;6218852;23;20091;-85
2023/07/05 09:55:20;;;;;;;2.53;0.68;;;13.00;99.90;;;;;;6246281;23;20108;-84
2023/07/05 09:57:47;;;;;;;2.20;0.20;;;13.10;99.90;;;;;;6219278;23;20454;-84
2023/07/05 10:00:23;;;;;;;0.22;0.20;;;13.10;99.90;;;;;;6245777;23;20027;-84
2023/07/05 10:02:51;;;;;;;2.55;0.20;;;13.20;99.90;;;;;;6219276;23;20020;-85
2023/07/05 10:05:26;;;;;;;3.42;0.32;;;13.30;99.90;;;;;;6246378;23;20059;-84
2023/07/05 10:08:01;;;;;;;3.25;0.20;;;13.30;99.90;;;;;;6246272;23;20339;-83
2023/07/05 10:10:33;;;;;;;0.38;0.20;;;13.40;99.90;;;;;;6246233;23;20461;-86
2023/07/05 10:13:11;;;;;;;0.47;0.20;;;13.40;99.90;;;;;;6218584;23;20016;-83
2023/07/05 10:15:42;;;;;;;2.33;0.20;;;13.40;99.90;;;;;;6245318;23;20024;-83
2023/07/05 10:18:27;;;;;;;3.42;2.05;;;12.70;99.90;;;;;;6245999;23;20110;-83
2023/07/05 10:20:54;;;;;;;0.43;0.20;;;13.40;99.90;;;;;;6245168;23;20355;-83
2023/07/05 10:23:22;;;;;;;0.60;0.13;;;13.40;99.90;;;;;;6245265;23;20034;-85
2023/07/05 10:25:49;;;;;;;3.95;0.20;;;13.40;99.90;;;;;;6245676;23;20145;-84
2023/07/05 10:28:18;;;;;;;0.45;0.20;;;13.50;99.90;;;;;;6246397;23;20396;-83
2023/07/05 10:30:50;;;;;;;1.20;0.10;;;13.50;99.90;;;;;;6245739;23;20020;-83
2023/07/05 10:33:25;;;;;;;2.42;0.20;;;13.50;99.90;;;;;;6218812;23;20104;-85
2023/07/05 10:36:03;;;;;;;4.28;0.20;;;13.60;99.90;;;;;;6219548;23;20097;-85
2023/07/05 10:38:47;;;;;;;0.43;0.10;;;13.70;99.90;;;;;;6219004;23;20455;-82
2023/07/05 10:41:19;;;;;;;0.60;0.20;;;14.10;99.90;;;;;;6245694;23;20474;-84
2023/07/05 10:43:55;;;;;;;0.28;0.10;;;14.40;99.90;;;;;;6219567;23;20354;-85
2023/07/05 10:46:24;;;;;;;0.52;0.13;;;14.60;99.90;;;;;;6246203;23;20028;-84
2023/07/05 10:48:52;;;;;;;0.45;0.20;;;15.00;99.90;;;;;;6245916;22;20024;-84
2023/07/05 10:51:23;;;;;;;2.25;0.17;;;15.40;99.90;;;;;;6219176;23;20062;-83
2023/07/05 10:53:57;;;;;;;1.67;0.10;;;15.80;99.90;;;;;;6244688;23;20026;-84
2023/07/05 10:56:29;;;;;;;1.65;0.20;;;16.10;99.90;;;;;;6245464;23;20047;-84
2023/07/05 10:59:33;;;;;;;1.48;0.10;;;16.20;99.90;;;;;;6218604;23;20028;-84
2023/07/05 11:02:21;;;;;;;0.30;0.10;;;16.20;99.90;;;;;;6098894;23;20033;-85
2023/07/05 11:04:49;;;;;;;1.98;0.20;;;16.50;99.90;;;;;;6122591;23;20100;-86
2023/07/05 11:07:17;;;;;;;1.48;0.10;;;16.50;99.90;;;;;;6123548;23;20030;-85
2023/07/05 11:09:43;;;;;;;1.55;0.20;;;16.50;99.90;;;;;;6123576;23;20045;-84
2023/07/05 11:12:22;;;;;;;1.25;0.20;;;16.60;99.90;;;;;;6098689;23;20032;-88
2023/07/05 11:14:49;;;;;;;4.57;0.35;;;16.80;99.90;;;;;;6099126;23;20084;-84
2023/07/05 11:17:28;;;;;;;0.68;0.10;;;17.10;99.90;;;;;;6098927;23;20032;-86
2023/07/05 11:19:53;;;;;;;0.28;0.10;;;17.20;99.90;;;;;;6098421;23;20032;-85
2023/07/05 11:22:41;;;;;;;0.50;0.13;;;17.60;99.90;;;;;;6123295;23;20104;-85
2023/07/05 11:25:17;;;;;;;0.40;0.13;;;17.70;99.90;;;;;;6099001;23;20058;-85
2023/07/05 11:27:59;;;;;;;0.57;0.10;;;17.90;99.90;;;;;;6122694;23;20020;-86
2023/07/05 11:30:39;;;;;;;2.58;0.20;;;17.90;99.90;;;;;;6098720;23;20100;-85
2023/07/05 11:33:04;;;;;;;0.40;0.10;;;18.00;99.90;;;;;;6099028;23;20141;-85
2023/07/05 11:35:54;;;;;;;0.63;0.25;;;18.10;99.90;;;;;;6123228;23;20025;-86
2023/07/05 11:38:39;;;;;;;224.70;210.30;;;18.00;99.90;;;;;;6229729;23;20052;-85
2023/07/05 11:41:27;;;;;;;0.20;0.20;;;18.10;99.90;;;;;;6221102;23;20236;-85
2023/07/05 11:44:04;;;;;;;1.48;0.35;;;18.40;99.90;;;;;;6220381;23;20454;-84
2023/07/05 11:46:45;;;;;;;0.77;0.30;;;18.20;99.90;;;;;;6247536;23;20028;-86
2023/07/05 11:49:15;;;;;;;1.58;0.20;;;18.10;99.90;;;;;;6220671;23;20024;-84
2023/07/05 11:51:41;;;;;;;0.90;0.20;;;18.20;99.90;;;;;;6220767;23;20562;-83
2023/07/05 11:54:09;;;;;;;0.95;0.30;;;18.50;99.90;;;;;;6247709;23;20055;-82
2023/07/05 11:56:38;;;;;;;1.35;0.30;;;18.60;99.90;;;;;;6247099;23;20020;-85
2023/07/05 11:59:08;;;;;;;0.40;0.20;;;18.70;99.90;;;;;;6220946;23;20021;-87
2023/07/05 12:01:37;;;;;;;2.92;0.63;;;18.70;99.90;;;;;;6220632;23;20031;-85
2023/07/05 12:04:10;;;;;;;0.80;0.20;;;18.70;99.90;;;;;;6195559;23;20020;-85
2023/07/05 12:06:41;;;;;;;0.60;0.32;;;18.50;99.90;;;;;;6195241;23;20035;-83
2023/07/05 12:09:21;;;;;;;2.35;0.30;;;18.40;99.90;;;;;;6220764;23;20024;-85
2023/07/05 12:11:54;;;;;;;2.08;0.50;;;18.30;99.90;;;;;;6220458;23;20031;-84
2023/07/05 12:14:20;;;;;;;1.05;0.30;;;18.10;99.90;;;;;;6220258;23;20027;-85
2023/07/05 12:16:46;;;;;;;2.40;0.40;;;18.00;99.90;;;;;;6247087;23;20020;-85
2023/07/05 12:19:30;;;;;;;2.67;0.40;;;17.90;99.90;;;;;;6220052;23;20342;-87
2023/07/05 12:22:06;;;;;;;3.10;0.40;;;17.80;99.90;;;;;;6195306;23;20401;-86
2023/07/05 12:24:37;;;;;;;;;;;17.70;99.90;;;;;;6247931;23;20020;-86
2023/07/05 12:27:04;;;;;;;6.40;0.80;;;17.50;99.90;;;;;;6219922;23;19922;-83
2023/07/05 12:29:29;;;;;;;6.00;1.23;;;17.10;99.90;;;;;;6219820;23;20055;-83
2023/07/05 12:32:07;;;;;;;6.60;0.80;;;16.90;99.90;;;;;;6219666;23;20028;-84
2023/07/05 12:34:36;;;;;;;5.30;0.70;;;16.60;99.90;;;;;;6247011;23;20063;-86
2023/07/05 12:37:02;;;;;;;3.92;0.50;;;16.40;99.90;;;;;;6194859;23;20075;-87
2023/07/05 12:39:28;;;;;;;3.22;0.60;;;16.00;99.90;;;;;;6219511;23;20108;-85
2023/07/05 12:42:05;;;;;;;2.53;0.50;;;15.90;99.90;;;;;;6246975;23;20024;-84
2023/07/05 12:44:33;;;;;;;2.70;0.70;;;15.70;99.90;;;;;;6220011;23;20026;-86
2023/07/05 12:47:16;;;;;;;6.10;0.70;;;15.50;99.90;;;;;;6219657;23;20451;-86
2023/07/05 12:49:42;;;;;;;4.18;0.55;;;15.30;99.90;;;;;;6194518;23;20028;-84
2023/07/05 12:52:20;;;;;;;5.60;0.80;;;15.20;99.90;;;;;;6219262;23;20027;-86
2023/07/05 12:54:46;;;;;;;7.88;0.70;;;15.10;99.90;;;;;;6246967;23;20024;-85
2023/07/05 12:57:28;;;;;;;7.68;0.77;;;14.90;99.90;;;;;;6219751;23;20151;-82
2023/07/05 12:59:54;;;;;;;4.07;0.80;;;14.80;99.90;;;;;;6246731;23;20016;-85
2023/07/05 13:02:30;;;;;;;3.17;0.40;;;14.70;99.90;;;;;;6219592;23;20356;-84